Conley, Kentucky
Current Conditions -  °F | °C
As of 4:53 AM on Tuesday 27 Jan 2015 (Local Time) from KJKL Reporting Station
Overcast Overcast  
Wind Chill: 26°   Ceiling: 1200
Heat Index: 26°   Visibility: 10mi
Dew Point: 22°   Wind: 0mph
Humidity: 84%   Direction: NA
Pressure: 29.86"   Gusts: NA
Location:  37.7261°N, 83.0786°W
Report Text: KJKL 270953Z AUTO 00000KT 10SM BKN012 OVC018 M03/M06 A2986 RMK AO2 SLP123 T10331056
Loading
Personal Weather Stations






























Interactive Weather Map New forecast layout! Learn more

10-Day Weather Forecast

Advertisements
Track Severe Weather on mobile